createdAt,value
2023-03-11T00:00:21.750Z,23.20
2023-03-11T00:01:21.723Z,22.90
2023-03-11T00:02:21.809Z,22.20
2023-03-11T00:03:21.711Z,22.20
2023-03-11T00:04:21.718Z,24.40
2023-03-11T00:05:21.771Z,23.30
2023-03-11T00:06:21.679Z,22.90
2023-03-11T00:07:21.673Z,25.10
2023-03-11T00:08:21.665Z,24.60
2023-03-11T00:09:21.669Z,23.80
2023-03-11T00:10:21.690Z,24.00
2023-03-11T00:11:21.660Z,24.60
2023-03-11T00:12:21.613Z,23.30
2023-03-11T00:13:21.623Z,23.00
2023-03-11T00:14:21.600Z,22.70
2023-03-11T00:15:21.599Z,25.90
2023-03-11T00:16:21.598Z,24.10
2023-03-11T00:17:21.562Z,24.20
2023-03-11T00:18:21.550Z,24.50
2023-03-11T00:19:21.574Z,25.40
2023-03-11T00:20:21.558Z,25.40
2023-03-11T00:21:21.521Z,25.60
2023-03-11T00:22:21.529Z,23.60
2023-03-11T00:23:21.525Z,27.70
2023-03-11T00:24:21.501Z,25.80
2023-03-11T00:25:21.490Z,26.70
2023-03-11T00:26:21.457Z,28.30
2023-03-11T00:27:21.454Z,26.80
2023-03-11T00:28:21.467Z,33.10
2023-03-11T00:29:21.490Z,31.40
2023-03-11T00:30:21.421Z,34.60
2023-03-11T00:31:21.444Z,32.10
2023-03-11T00:32:21.449Z,31.60
2023-03-11T00:33:21.385Z,28.90
2023-03-11T00:34:21.434Z,31.60
2023-03-11T00:35:21.379Z,30.90
2023-03-11T00:36:21.358Z,33.60
2023-03-11T00:37:21.336Z,31.70
2023-03-11T00:38:21.450Z,33.80
2023-03-11T00:39:21.330Z,32.40
2023-03-11T00:40:21.305Z,34.70
2023-03-11T00:41:21.308Z,37.20
2023-03-11T00:42:21.276Z,36.30
2023-03-11T00:43:21.267Z,35.60
2023-03-11T00:44:21.285Z,37.60
2023-03-11T00:45:21.247Z,38.20
2023-03-11T00:46:21.306Z,39.60
2023-03-11T00:47:21.253Z,41.50
2023-03-11T00:48:21.216Z,43.60
2023-03-11T00:49:21.205Z,48.00
2023-03-11T00:50:21.217Z,48.20
2023-03-11T00:51:21.186Z,45.30
2023-03-11T00:52:21.170Z,46.80
2023-03-11T00:53:21.170Z,54.80
2023-03-11T00:54:21.154Z,49.50
2023-03-11T00:55:21.159Z,50.10
2023-03-11T00:56:21.149Z,53.10
2023-03-11T00:57:21.124Z,52.20
2023-03-11T00:58:21.101Z,51.30
2023-03-11T00:59:21.101Z,53.20
2023-03-11T01:00:21.122Z,50.50
2023-03-11T01:01:21.141Z,51.70
2023-03-11T01:02:21.056Z,51.80
2023-03-11T01:03:21.085Z,50.90
2023-03-11T01:04:21.059Z,51.30
2023-03-11T01:05:21.052Z,52.60
2023-03-11T01:06:21.020Z,50.70
2023-03-11T01:07:21.010Z,54.60
2023-03-11T01:08:20.993Z,53.80
2023-03-11T01:09:20.998Z,55.40
2023-03-11T01:10:21.002Z,50.30
2023-03-11T01:11:20.959Z,52.60
2023-03-11T01:12:20.958Z,51.90
2023-03-11T01:13:20.948Z,47.60
2023-03-11T01:14:20.942Z,50.80
2023-03-11T01:15:20.940Z,50.20
2023-03-11T01:16:20.967Z,49.80
2023-03-11T01:17:20.894Z,51.50
2023-03-11T01:18:20.886Z,49.90
2023-03-11T01:19:20.880Z,49.90
2023-03-11T01:20:20.906Z,49.20
2023-03-11T01:21:20.850Z,47.80
2023-03-11T01:22:20.870Z,47.60
2023-03-11T01:23:20.846Z,48.60
2023-03-11T01:24:20.841Z,45.10
2023-03-11T01:25:20.833Z,46.10
2023-03-11T01:26:20.833Z,49.40
2023-03-11T01:27:20.801Z,49.60
2023-03-11T01:28:20.779Z,50.80
2023-03-11T01:29:20.766Z,44.90
2023-03-11T01:30:20.788Z,48.40
2023-03-11T01:31:20.817Z,43.70
2023-03-11T01:32:20.786Z,47.90
2023-03-11T01:33:20.729Z,46.10
2023-03-11T01:34:20.709Z,46.30
2023-03-11T01:35:20.725Z,46.70
2023-03-11T01:36:20.707Z,44.80
2023-03-11T01:37:20.673Z,48.00
2023-03-11T01:38:20.677Z,45.60
2023-03-11T01:39:20.658Z,44.90
2023-03-11T01:40:20.672Z,45.20
2023-03-11T01:41:20.629Z,46.80
2023-03-11T01:42:20.635Z,43.70
2023-03-11T01:43:20.632Z,45.20
2023-03-11T01:44:20.601Z,46.00
2023-03-11T01:45:20.623Z,46.90
2023-03-11T01:46:20.624Z,46.10
2023-03-11T01:47:20.565Z,46.30
2023-03-11T01:48:20.565Z,46.00
2023-03-11T01:49:20.547Z,46.90
2023-03-11T01:50:20.577Z,44.30
2023-03-11T01:51:20.536Z,42.50
2023-03-11T01:52:20.507Z,43.60
2023-03-11T01:53:20.495Z,48.50
2023-03-11T01:54:20.507Z,44.50
2023-03-11T01:55:20.531Z,44.40
2023-03-11T01:56:20.465Z,44.70
2023-03-11T01:57:20.493Z,43.60
2023-03-11T01:59:22.830Z,48.60
2023-03-11T02:00:23.836Z,48.60
2023-03-11T02:01:23.846Z,45.50
2023-03-11T02:02:23.796Z,44.40
2023-03-11T02:03:23.791Z,45.40
2023-03-11T02:04:23.773Z,45.40
2023-03-11T02:05:23.779Z,47.50
2023-03-11T02:06:23.753Z,50.00
2023-03-11T02:07:23.740Z,48.80
2023-03-11T02:08:23.729Z,46.90
2023-03-11T02:09:23.739Z,49.40
2023-03-11T02:10:23.742Z,48.50
2023-03-11T02:11:23.687Z,50.60
2023-03-11T02:12:23.694Z,48.70
2023-03-11T02:13:23.679Z,48.20
2023-03-11T02:14:23.655Z,51.80
2023-03-11T02:15:23.662Z,49.90
2023-03-11T02:16:23.731Z,46.90
2023-03-11T02:17:23.633Z,47.90
2023-03-11T02:18:23.632Z,49.90
2023-03-11T02:19:23.625Z,46.50
2023-03-11T02:20:23.659Z,45.20
2023-03-11T02:21:23.620Z,46.90
2023-03-11T02:22:23.582Z,45.70
2023-03-11T02:23:23.568Z,42.80
2023-03-11T02:24:23.548Z,48.30
2023-03-11T02:25:23.569Z,47.30
2023-03-11T02:26:23.541Z,42.70
2023-03-11T02:27:23.525Z,42.60
2023-03-11T02:28:23.513Z,42.60
2023-03-11T02:29:23.499Z,43.00
2023-03-11T02:30:23.521Z,44.80
2023-03-11T02:31:23.507Z,47.50
2023-03-11T02:32:23.544Z,43.10
2023-03-11T02:33:23.475Z,42.70
2023-03-11T02:34:23.459Z,45.80
2023-03-11T02:35:23.454Z,43.50
2023-03-11T02:36:23.430Z,43.50
2023-03-11T02:37:23.421Z,45.90
2023-03-11T02:38:23.416Z,43.00
2023-03-11T02:39:23.405Z,46.90
2023-03-11T02:40:23.427Z,45.70
2023-03-11T02:41:23.364Z,45.10
2023-03-11T02:42:23.388Z,43.00
2023-03-11T02:43:23.354Z,45.10
2023-03-11T02:44:23.332Z,43.30
2023-03-11T02:45:23.361Z,44.40
2023-03-11T02:46:23.356Z,44.60
2023-03-11T02:47:23.299Z,42.40
2023-03-11T02:48:23.326Z,43.10
2023-03-11T02:49:23.273Z,41.70
2023-03-11T02:50:23.293Z,41.80
2023-03-11T02:51:23.263Z,41.60
2023-03-11T02:52:23.252Z,41.30
2023-03-11T02:53:23.227Z,41.30
2023-03-11T02:54:23.222Z,41.70
2023-03-11T02:55:23.237Z,40.30
2023-03-11T02:56:23.205Z,40.40
2023-03-11T02:57:23.189Z,39.50
2023-03-11T02:58:23.174Z,40.60
2023-03-11T02:59:23.169Z,42.50
2023-03-11T03:00:23.176Z,38.90
2023-03-11T03:01:23.144Z,42.00
2023-03-11T03:02:23.127Z,42.10
2023-03-11T03:03:23.130Z,40.60
2023-03-11T03:04:23.176Z,39.80
2023-03-11T03:05:23.115Z,38.00
2023-03-11T03:06:23.102Z,38.20
2023-03-11T03:07:23.072Z,37.90
2023-03-11T03:08:23.087Z,36.90
2023-03-11T03:09:23.052Z,38.70
2023-03-11T03:10:23.060Z,36.40
2023-03-11T03:11:23.032Z,37.60
2023-03-11T03:12:23.020Z,37.20
2023-03-11T03:13:23.028Z,35.60
2023-03-11T03:14:23.002Z,36.00
2023-03-11T03:15:23.025Z,36.50
2023-03-11T03:16:23.035Z,39.40
2023-03-11T03:17:23.013Z,36.50
2023-03-11T03:18:22.969Z,36.70
2023-03-11T03:19:22.963Z,36.80
2023-03-11T03:20:22.958Z,33.80
2023-03-11T03:21:22.948Z,35.40
2023-03-11T03:22:22.908Z,35.30
2023-03-11T03:23:22.902Z,34.60
2023-03-11T03:24:22.887Z,35.60
2023-03-11T03:25:22.900Z,36.10
2023-03-11T03:26:22.867Z,35.70
2023-03-11T03:27:22.856Z,34.80
2023-03-11T03:28:22.839Z,34.30
2023-03-11T03:29:22.835Z,32.60
2023-03-11T03:30:22.856Z,32.50
2023-03-11T03:31:22.853Z,30.30
2023-03-11T03:32:22.818Z,31.00
2023-03-11T03:33:22.791Z,30.40
2023-03-11T03:34:22.775Z,30.40
2023-03-11T03:35:22.788Z,29.70
2023-03-11T03:36:22.777Z,30.30
2023-03-11T03:37:22.751Z,30.20
2023-03-11T03:38:22.746Z,28.80
2023-03-11T03:39:22.719Z,30.10
2023-03-11T03:40:22.740Z,31.40
2023-03-11T03:41:22.707Z,28.50
2023-03-11T03:42:22.709Z,26.00
2023-03-11T03:43:22.685Z,26.20
2023-03-11T03:44:22.695Z,29.40
2023-03-11T03:45:22.671Z,29.40
2023-03-11T03:46:22.745Z,29.30
2023-03-11T03:47:22.638Z,26.40
2023-03-11T03:48:22.631Z,26.00
2023-03-11T03:49:22.609Z,27.50
2023-03-11T03:50:22.616Z,28.90
2023-03-11T03:51:22.622Z,27.60
2023-03-11T03:52:22.592Z,25.90
2023-03-11T03:53:22.584Z,29.80
2023-03-11T03:54:22.571Z,25.50
2023-03-11T03:55:22.560Z,29.60
2023-03-11T03:56:22.576Z,28.00
2023-03-11T03:57:22.542Z,28.10
2023-03-11T03:58:22.525Z,26.70
2023-03-11T03:59:22.529Z,29.70
2023-03-11T04:00:22.579Z,25.80
2023-03-11T04:01:22.519Z,27.70
2023-03-11T04:02:22.545Z,26.90
2023-03-11T04:03:22.547Z,26.60
2023-03-11T04:04:22.468Z,25.60
2023-03-11T04:05:22.462Z,29.20
2023-03-11T04:06:22.481Z,27.70
2023-03-11T04:07:22.433Z,27.10
2023-03-11T04:08:22.424Z,25.30
2023-03-11T04:09:22.403Z,29.20
2023-03-11T04:10:22.396Z,28.40
2023-03-11T04:11:22.419Z,26.90
2023-03-11T04:12:22.394Z,31.00
2023-03-11T04:13:22.363Z,29.40
2023-03-11T04:14:22.344Z,28.90
2023-03-11T04:15:22.353Z,30.00
2023-03-11T04:16:22.465Z,30.40
2023-03-11T04:17:22.310Z,30.90
2023-03-11T04:18:22.303Z,32.40
2023-03-11T04:19:22.314Z,33.40
2023-03-11T04:20:22.292Z,32.10
2023-03-11T04:21:22.321Z,34.60
2023-03-11T04:22:22.262Z,33.40
2023-03-11T04:23:22.247Z,32.20
2023-03-11T04:24:22.243Z,36.60
2023-03-11T04:25:22.225Z,35.90
2023-03-11T04:26:22.232Z,37.40
2023-03-11T04:27:22.217Z,32.10
2023-03-11T04:28:22.201Z,35.70
2023-03-11T04:29:22.180Z,38.70
2023-03-11T04:30:22.187Z,35.80
2023-03-11T04:31:22.289Z,34.60
2023-03-11T04:32:22.163Z,37.10
2023-03-11T04:33:22.134Z,36.90
2023-03-11T04:34:22.135Z,36.50
2023-03-11T04:35:22.114Z,36.50
2023-03-11T04:36:22.112Z,37.50
2023-03-11T04:37:22.083Z,39.20
2023-03-11T04:38:22.090Z,34.90
2023-03-11T04:39:22.070Z,36.50
2023-03-11T04:40:22.065Z,37.00
2023-03-11T04:41:22.060Z,35.60
2023-03-11T04:42:22.033Z,39.00
2023-03-11T04:43:22.039Z,37.60
2023-03-11T04:44:22.009Z,37.20
2023-03-11T04:45:22.007Z,39.70
2023-03-11T04:46:22.071Z,40.60
2023-03-11T04:47:21.992Z,38.30
2023-03-11T04:48:21.973Z,36.90
2023-03-11T04:49:21.966Z,39.20
2023-03-11T04:50:21.954Z,37.30
2023-03-11T04:51:21.967Z,39.30
2023-03-11T04:52:21.921Z,41.90
2023-03-11T04:53:21.917Z,38.90
2023-03-11T04:54:21.901Z,37.80
2023-03-11T04:55:21.894Z,39.10
2023-03-11T04:56:21.927Z,40.30
2023-03-11T04:57:21.871Z,43.00
2023-03-11T04:58:21.877Z,43.00
2023-03-11T04:59:21.846Z,40.30
2023-03-11T05:00:21.843Z,41.80
2023-03-11T05:01:21.874Z,41.70
2023-03-11T05:02:21.829Z,39.40
2023-03-11T05:03:21.873Z,39.10
2023-03-11T05:04:21.902Z,35.70
2023-03-11T05:05:21.788Z,37.30
2023-03-11T05:06:21.828Z,38.20
2023-03-11T05:07:21.782Z,36.20
2023-03-11T05:08:21.764Z,36.80
2023-03-11T05:09:21.746Z,41.60
2023-03-11T05:10:21.734Z,39.60
2023-03-11T05:11:21.750Z,37.90
2023-03-11T05:12:21.739Z,39.30
2023-03-11T05:13:21.701Z,36.90
2023-03-11T05:14:21.728Z,33.50
2023-03-11T05:15:21.684Z,36.70
2023-03-11T05:16:21.820Z,35.50
2023-03-11T05:17:21.664Z,33.10
2023-03-11T05:18:21.656Z,32.00
2023-03-11T05:19:21.648Z,28.50
2023-03-11T05:20:21.618Z,29.10
2023-03-11T05:21:21.635Z,28.30
2023-03-11T05:22:21.599Z,30.00
2023-03-11T05:23:21.601Z,29.00
2023-03-11T05:24:21.592Z,27.10
2023-03-11T05:25:21.563Z,27.60
2023-03-11T05:26:21.581Z,28.20
2023-03-11T05:27:21.554Z,27.10
2023-03-11T05:28:21.532Z,27.40
2023-03-11T05:29:21.525Z,24.70
2023-03-11T05:30:21.511Z,24.60
2023-03-11T05:31:21.538Z,25.60
2023-03-11T05:32:21.507Z,23.70
2023-03-11T05:33:21.478Z,26.00
2023-03-11T05:34:21.477Z,21.30
2023-03-11T05:35:21.542Z,23.10
2023-03-11T05:36:21.476Z,21.00
2023-03-11T05:37:21.449Z,22.30
2023-03-11T05:38:21.431Z,20.80
2023-03-11T05:39:21.423Z,20.70
2023-03-11T05:40:21.406Z,19.30
2023-03-11T05:41:21.414Z,20.60
2023-03-11T05:42:21.675Z,22.70
2023-03-11T05:43:21.378Z,19.20
2023-03-11T05:44:21.386Z,19.00
2023-03-11T05:45:21.344Z,23.20
2023-03-11T05:46:21.421Z,17.40
2023-03-11T05:47:21.366Z,17.90
2023-03-11T05:48:21.326Z,16.90
2023-03-11T05:49:21.304Z,17.80
2023-03-11T05:50:21.329Z,16.80
2023-03-11T05:51:21.328Z,17.10
2023-03-11T05:52:21.282Z,18.60
2023-03-11T05:53:21.269Z,16.00
2023-03-11T05:54:21.248Z,16.70
2023-03-11T05:55:21.246Z,18.60
2023-03-11T05:56:21.289Z,16.90
2023-03-11T05:57:21.228Z,15.40
2023-03-11T05:58:21.296Z,16.90
2023-03-11T05:59:21.215Z,16.10
2023-03-11T06:00:21.193Z,16.50
2023-03-11T06:01:21.193Z,16.70
2023-03-11T06:02:21.203Z,16.60
2023-03-11T06:03:21.157Z,18.00
2023-03-11T06:04:21.223Z,15.80
2023-03-11T06:05:21.172Z,15.50
2023-03-11T06:06:21.159Z,16.30
2023-03-11T06:07:21.110Z,16.60
2023-03-11T06:08:21.102Z,16.20
2023-03-11T06:09:21.089Z,16.40
2023-03-11T06:10:21.083Z,16.40
2023-03-11T06:11:21.104Z,16.30
2023-03-11T06:12:21.064Z,16.60
2023-03-11T06:13:21.051Z,16.10
2023-03-11T06:14:21.040Z,14.30
2023-03-11T06:15:21.012Z,17.40
2023-03-11T06:16:21.139Z,17.70
2023-03-11T06:17:20.987Z,15.50
2023-03-11T06:18:20.981Z,15.70
2023-03-11T06:19:20.974Z,15.30
2023-03-11T06:20:21.032Z,16.30
2023-03-11T06:21:20.982Z,16.60
2023-03-11T06:22:20.966Z,15.90
2023-03-11T06:23:20.932Z,15.10
2023-03-11T06:24:20.931Z,14.50
2023-03-11T06:25:20.926Z,17.30
2023-03-11T06:26:21.006Z,16.50
2023-03-11T06:27:20.897Z,16.40
2023-03-11T06:28:20.919Z,16.20
2023-03-11T06:29:20.881Z,14.80
2023-03-11T06:30:20.894Z,15.40
2023-03-11T06:31:20.920Z,14.50
2023-03-11T06:32:20.851Z,15.50
2023-03-11T06:33:20.819Z,16.60
2023-03-11T06:34:20.822Z,14.80
2023-03-11T06:35:20.805Z,15.90
2023-03-11T06:36:20.821Z,14.00
2023-03-11T06:37:20.776Z,15.90
2023-03-11T06:38:20.780Z,15.00
2023-03-11T06:39:20.756Z,16.00
2023-03-11T06:40:20.755Z,16.20
2023-03-11T06:41:20.749Z,14.40
2023-03-11T06:42:20.717Z,15.00
2023-03-11T06:43:20.737Z,15.20
2023-03-11T06:44:20.714Z,15.60
2023-03-11T06:45:20.889Z,17.20
2023-03-11T06:46:20.733Z,16.30
2023-03-11T06:47:20.712Z,15.10
2023-03-11T06:48:20.667Z,16.30
2023-03-11T06:49:20.644Z,17.30
2023-03-11T06:50:20.638Z,14.50
2023-03-11T06:51:20.637Z,14.50
2023-03-11T06:52:20.628Z,14.60
2023-03-11T06:53:20.609Z,17.30
2023-03-11T06:54:20.592Z,14.50
2023-03-11T06:55:20.594Z,14.30
2023-03-11T06:56:20.597Z,12.60
2023-03-11T06:57:20.569Z,14.50
2023-03-11T06:58:20.548Z,15.10
2023-03-11T06:59:20.540Z,15.30
2023-03-11T07:00:20.534Z,12.80
2023-03-11T07:01:20.551Z,15.40
2023-03-11T07:02:20.505Z,15.30
2023-03-11T07:03:20.517Z,14.10
2023-03-11T07:04:20.528Z,14.00
2023-03-11T07:05:20.476Z,14.80
2023-03-11T07:06:20.493Z,12.40
2023-03-11T07:07:20.459Z,13.30
2023-03-11T07:08:20.447Z,13.00
2023-03-11T07:09:20.437Z,12.70
2023-03-11T07:10:20.418Z,13.00
2023-03-11T07:11:20.412Z,14.50
2023-03-11T07:12:20.488Z,13.50
2023-03-11T07:13:20.389Z,13.40
2023-03-11T07:14:20.576Z,14.20
2023-03-11T07:15:20.362Z,12.90
2023-03-11T07:16:20.417Z,16.70
2023-03-11T07:17:20.389Z,12.10
2023-03-11T07:18:20.332Z,13.40
2023-03-11T07:19:20.496Z,13.30
2023-03-11T07:20:20.348Z,14.00
2023-03-11T07:21:20.347Z,12.50
2023-03-11T07:22:20.373Z,13.40
2023-03-11T07:23:20.373Z,14.00
2023-03-11T07:24:20.279Z,13.20
2023-03-11T07:25:20.254Z,14.50
2023-03-11T07:26:20.349Z,12.50
2023-03-11T07:27:20.273Z,14.20
2023-03-11T07:28:20.248Z,15.00
2023-03-11T07:29:20.243Z,13.60
2023-03-11T07:30:20.611Z,14.00
2023-03-11T07:31:20.241Z,14.50
2023-03-11T07:32:20.206Z,14.60
2023-03-11T07:33:20.188Z,14.30
2023-03-11T07:34:20.246Z,14.40
2023-03-11T07:35:20.158Z,12.80
2023-03-11T07:36:20.149Z,14.60
2023-03-11T07:37:20.118Z,12.70
2023-03-11T07:38:20.114Z,13.40
2023-03-11T07:39:20.258Z,15.20
2023-03-11T07:40:20.118Z,14.80
2023-03-11T07:41:20.543Z,13.70
2023-03-11T07:42:20.647Z,14.40
2023-03-11T07:43:20.081Z,14.10
2023-03-11T07:44:20.424Z,13.80
2023-03-11T07:45:20.227Z,12.40
2023-03-11T07:46:20.104Z,14.40
2023-03-11T07:47:20.009Z,14.60
2023-03-11T07:48:20.009Z,14.70
2023-03-11T07:49:20.109Z,14.60
2023-03-11T07:50:19.986Z,13.50
2023-03-11T07:51:19.991Z,13.60
2023-03-11T07:52:19.981Z,14.00
2023-03-11T07:53:19.950Z,12.40
2023-03-11T07:54:19.947Z,15.50
2023-03-11T07:55:19.944Z,13.10
2023-03-11T07:56:19.927Z,14.00
2023-03-11T07:57:19.899Z,14.00
2023-03-11T07:58:19.919Z,13.70
2023-03-11T07:59:26.452Z,13.70
2023-03-11T08:00:19.872Z,14.50
2023-03-11T08:01:19.853Z,15.00
2023-03-11T08:02:19.876Z,14.70
2023-03-11T08:03:19.939Z,13.00
2023-03-11T08:04:19.837Z,13.10
2023-03-11T08:05:19.817Z,12.70
2023-03-11T08:06:19.938Z,14.50
2023-03-11T08:07:19.797Z,12.90
2023-03-11T08:08:19.784Z,13.60
2023-03-11T08:09:19.796Z,15.30
2023-03-11T08:10:19.799Z,13.50
2023-03-11T08:11:19.734Z,13.90
2023-03-11T08:12:19.748Z,13.20
2023-03-11T08:13:19.753Z,13.30
2023-03-11T08:14:19.738Z,12.90
2023-03-11T08:15:19.698Z,12.00
2023-03-11T08:16:19.715Z,12.90
2023-03-11T08:17:19.683Z,12.60
2023-03-11T08:18:19.665Z,12.00
2023-03-11T08:19:19.672Z,12.80
2023-03-11T08:20:19.664Z,12.10
2023-03-11T08:21:19.929Z,11.30
2023-03-11T08:22:19.642Z,13.40
2023-03-11T08:23:19.627Z,10.70
2023-03-11T08:24:19.608Z,11.20
2023-03-11T08:25:19.600Z,9.10
2023-03-11T08:26:19.593Z,11.30
2023-03-11T08:27:19.581Z,11.80
2023-03-11T08:28:19.602Z,13.30
2023-03-11T08:29:19.579Z,12.90
2023-03-11T08:30:19.538Z,13.60
2023-03-11T08:31:19.666Z,10.80
2023-03-11T08:32:19.553Z,10.10
2023-03-11T08:33:19.515Z,13.20
2023-03-11T08:34:19.514Z,12.00
2023-03-11T08:35:19.494Z,10.10
2023-03-11T08:36:19.484Z,11.90
2023-03-11T08:37:19.473Z,10.10
2023-03-11T08:38:19.452Z,10.50
2023-03-11T08:39:19.444Z,10.40
2023-03-11T08:40:19.479Z,10.40
2023-03-11T08:41:19.439Z,10.90
2023-03-11T08:42:19.403Z,9.90
2023-03-11T08:43:19.448Z,9.30
2023-03-11T08:44:19.389Z,11.70
2023-03-11T08:45:22.895Z,9.90
2023-03-11T08:46:19.577Z,9.80
2023-03-11T08:47:19.361Z,9.30
2023-03-11T08:48:19.335Z,10.50
2023-03-11T08:49:19.321Z,10.50
2023-03-11T08:50:19.323Z,10.50
2023-03-11T08:51:19.344Z,9.90
2023-03-11T08:52:19.319Z,9.70
2023-03-11T08:53:19.309Z,9.30
2023-03-11T08:54:19.314Z,8.40
2023-03-11T08:55:19.256Z,10.60
2023-03-11T08:56:19.245Z,10.40
2023-03-11T08:57:19.251Z,8.60
2023-03-11T08:58:19.241Z,8.60
2023-03-11T08:59:19.228Z,9.30
2023-03-11T09:00:19.207Z,8.00
2023-03-11T09:01:19.192Z,9.10
2023-03-11T09:02:19.208Z,8.70
2023-03-11T09:03:19.195Z,8.60
2023-03-11T09:04:19.190Z,8.30
2023-03-11T09:05:19.164Z,9.00
2023-03-11T09:06:19.134Z,9.80
2023-03-11T09:07:19.136Z,8.80
2023-03-11T09:08:19.124Z,8.70
2023-03-11T09:09:19.100Z,9.60
2023-03-11T09:10:19.136Z,9.10
2023-03-11T09:11:19.090Z,7.30
2023-03-11T09:12:19.065Z,7.50
2023-03-11T09:13:19.080Z,9.80
2023-03-11T09:14:19.169Z,7.20
2023-03-11T09:15:19.039Z,9.00
2023-03-11T09:16:19.091Z,7.80
2023-03-11T09:17:19.049Z,8.30
2023-03-11T09:18:19.011Z,6.50
2023-03-11T09:19:19.236Z,8.40
2023-03-11T09:20:18.975Z,9.50
2023-03-11T09:21:18.984Z,6.70
2023-03-11T09:22:19.117Z,8.90
2023-03-11T09:23:19.043Z,7.20
2023-03-11T09:24:18.955Z,8.90
2023-03-11T09:25:18.940Z,8.10
2023-03-11T09:26:18.910Z,7.90
2023-03-11T09:27:18.944Z,7.60
2023-03-11T09:28:18.898Z,6.30
2023-03-11T09:29:18.891Z,8.30
2023-03-11T09:30:18.884Z,7.10
2023-03-11T09:31:19.059Z,5.80
2023-03-11T09:32:18.908Z,7.90
2023-03-11T09:33:18.844Z,6.90
2023-03-11T09:34:18.853Z,7.90
2023-03-11T09:35:18.817Z,8.80
2023-03-11T09:36:18.814Z,9.70
2023-03-11T09:37:18.817Z,7.60
2023-03-11T09:38:18.810Z,10.10
2023-03-11T09:39:18.846Z,8.40
2023-03-11T09:40:18.784Z,9.30
2023-03-11T09:41:18.867Z,8.50
2023-03-11T09:42:18.781Z,9.20
2023-03-11T09:43:18.736Z,8.10
2023-03-11T09:44:18.774Z,8.90
2023-03-11T09:45:18.760Z,9.20
2023-03-11T09:46:18.739Z,8.30
2023-03-11T09:47:18.705Z,7.10
2023-03-11T09:48:19.690Z,9.00
2023-03-11T09:49:18.686Z,7.70
2023-03-11T09:50:18.696Z,10.00
2023-03-11T09:51:18.654Z,8.70
2023-03-11T09:52:18.680Z,7.60
2023-03-11T09:53:18.621Z,9.90
2023-03-11T09:54:18.616Z,8.90
2023-03-11T09:55:18.601Z,10.20
2023-03-11T09:56:18.639Z,8.80
2023-03-11T09:57:18.610Z,8.10
2023-03-11T09:58:18.568Z,9.50
2023-03-11T09:59:18.579Z,7.90
2023-03-11T10:00:18.563Z,7.60
2023-03-11T10:01:18.554Z,10.20
2023-03-11T10:02:18.720Z,7.50
2023-03-11T10:03:18.647Z,8.80
2023-03-11T10:04:18.533Z,7.50
2023-03-11T10:05:18.496Z,8.90
2023-03-11T10:06:18.489Z,7.70
2023-03-11T10:07:18.513Z,7.40
2023-03-11T10:08:18.463Z,9.30
2023-03-11T10:09:18.490Z,7.60
2023-03-11T10:10:18.449Z,7.50
2023-03-11T10:11:18.430Z,6.40
2023-03-11T10:12:18.466Z,8.30
2023-03-11T10:13:18.423Z,7.00
2023-03-11T10:14:18.395Z,9.00
2023-03-11T10:15:18.397Z,6.90
2023-03-11T10:16:18.394Z,9.50
2023-03-11T10:17:18.385Z,7.70
2023-03-11T10:18:18.359Z,7.90
2023-03-11T10:19:18.346Z,6.60
2023-03-11T10:20:18.327Z,7.80
2023-03-11T10:21:18.304Z,6.60
2023-03-11T10:22:18.344Z,8.50
2023-03-11T10:23:18.303Z,7.00
2023-03-11T10:24:18.276Z,7.10
2023-03-11T10:25:18.280Z,7.40
2023-03-11T10:26:18.305Z,6.90
2023-03-11T10:27:18.251Z,6.50
2023-03-11T10:28:18.232Z,7.00
2023-03-11T10:29:18.235Z,10.00
2023-03-11T10:30:18.223Z,7.10
2023-03-11T10:31:18.235Z,8.30
2023-03-11T10:32:18.264Z,7.40
2023-03-11T10:33:18.187Z,6.80
2023-03-11T10:34:18.164Z,7.50
2023-03-11T10:35:18.167Z,9.70
2023-03-11T10:36:18.171Z,6.20
2023-03-11T10:37:18.149Z,7.80
2023-03-11T10:38:18.217Z,7.60
2023-03-11T10:39:18.112Z,5.60
2023-03-11T10:40:18.096Z,6.70
2023-03-11T10:41:18.112Z,7.10
2023-03-11T10:42:18.127Z,6.00
2023-03-11T10:43:18.070Z,6.70
2023-03-11T10:44:18.057Z,6.70
2023-03-11T10:45:18.047Z,7.80
2023-03-11T10:46:18.108Z,6.00
2023-03-11T10:47:18.076Z,5.70
2023-03-11T10:48:18.045Z,6.20
2023-03-11T10:49:18.002Z,8.40
2023-03-11T10:50:18.062Z,7.30
2023-03-11T10:51:17.983Z,7.30
2023-03-11T10:52:17.985Z,8.20
2023-03-11T10:53:18.896Z,6.70
2023-03-11T10:54:17.947Z,6.90
2023-03-11T10:55:17.938Z,6.00
2023-03-11T10:56:18.084Z,7.00
2023-03-11T10:57:18.118Z,4.90
2023-03-11T10:58:17.945Z,5.90
2023-03-11T10:59:17.890Z,6.00
2023-03-11T11:00:18.058Z,7.40
2023-03-11T11:01:17.944Z,5.80
2023-03-11T11:02:17.918Z,8.30
2023-03-11T11:03:17.908Z,6.70
2023-03-11T11:04:17.880Z,6.20
2023-03-11T11:05:17.826Z,6.60
2023-03-11T11:06:17.823Z,6.80
2023-03-11T11:07:17.824Z,6.30
2023-03-11T11:08:17.812Z,5.50
2023-03-11T11:09:17.789Z,6.50
2023-03-11T11:10:17.810Z,7.20
2023-03-11T11:11:17.763Z,4.40
2023-03-11T11:12:17.778Z,5.70
2023-03-11T11:13:18.024Z,5.50
2023-03-11T11:14:17.741Z,7.40
2023-03-11T11:15:17.726Z,6.60
2023-03-11T11:16:17.729Z,6.30
2023-03-11T11:17:17.727Z,5.90
2023-03-11T11:18:17.703Z,6.70
2023-03-11T11:19:17.685Z,7.50
2023-03-11T11:20:17.771Z,5.70
2023-03-11T11:21:17.684Z,5.40
2023-03-11T11:22:17.671Z,6.30
2023-03-11T11:23:17.670Z,8.30
2023-03-11T11:24:17.633Z,6.70
2023-03-11T11:25:17.696Z,5.90
2023-03-11T11:26:17.615Z,5.00
2023-03-11T11:27:17.616Z,6.20
2023-03-11T11:28:17.602Z,6.20
2023-03-11T11:29:17.600Z,6.70
2023-03-11T11:30:17.590Z,7.10
2023-03-11T11:31:17.618Z,4.80
2023-03-11T11:32:17.604Z,6.50
2023-03-11T11:33:17.546Z,5.00
2023-03-11T11:34:17.756Z,7.70
2023-03-11T11:35:17.647Z,5.10
2023-03-11T11:36:17.503Z,7.20
2023-03-11T11:37:17.505Z,6.40
2023-03-11T11:38:17.492Z,6.10
2023-03-11T11:39:17.503Z,5.30
2023-03-11T11:40:17.527Z,6.40
2023-03-11T11:41:17.591Z,7.60
2023-03-11T11:42:17.445Z,6.90
2023-03-11T11:43:17.544Z,5.30
2023-03-11T11:44:17.416Z,4.80
2023-03-11T11:45:17.547Z,5.00
2023-03-11T11:46:17.433Z,6.60
2023-03-11T11:47:17.438Z,5.30
2023-03-11T11:48:17.356Z,8.70
2023-03-11T11:49:17.370Z,5.40
2023-03-11T11:50:17.610Z,5.40
2023-03-11T11:51:17.353Z,6.40
2023-03-11T11:52:17.346Z,9.10
2023-03-11T11:53:17.295Z,7.50
2023-03-11T11:54:17.537Z,6.30
2023-03-11T11:55:17.294Z,4.60
2023-03-11T11:56:17.296Z,6.60
2023-03-11T11:57:17.268Z,7.60
2023-03-11T11:58:17.244Z,5.50
2023-03-11T11:59:17.518Z,7.30
2023-03-11T12:00:17.265Z,6.20
2023-03-11T12:01:17.305Z,7.00
2023-03-11T12:02:17.226Z,5.00
2023-03-11T12:03:17.205Z,5.10
2023-03-11T12:04:17.171Z,5.50
2023-03-11T12:05:17.208Z,6.60
2023-03-11T12:06:17.146Z,5.40
2023-03-11T12:07:17.146Z,5.20
2023-03-11T12:08:17.128Z,5.30
2023-03-11T12:09:17.118Z,5.10
2023-03-11T12:10:23.159Z,5.80
2023-03-11T12:11:17.115Z,3.80
2023-03-11T12:12:17.103Z,8.20
2023-03-11T12:13:17.069Z,6.80
2023-03-11T12:14:17.059Z,6.30
2023-03-11T12:15:17.067Z,8.20
2023-03-11T12:16:17.118Z,4.80
2023-03-11T12:17:17.057Z,4.90
2023-03-11T12:18:17.051Z,7.50
2023-03-11T12:19:17.023Z,5.50
2023-03-11T12:20:16.996Z,5.10
2023-03-11T12:21:16.982Z,7.60
2023-03-11T12:22:16.976Z,4.80
2023-03-11T12:23:16.973Z,5.60
2023-03-11T12:24:16.960Z,4.80
2023-03-11T12:25:16.938Z,5.20
2023-03-11T12:26:16.931Z,6.70
2023-03-11T12:27:16.921Z,6.10
2023-03-11T12:28:16.965Z,5.90
2023-03-11T12:29:16.898Z,6.20
2023-03-11T12:30:16.898Z,5.30
2023-03-11T12:31:16.946Z,5.00
2023-03-11T12:32:16.873Z,5.40
2023-03-11T12:33:17.315Z,4.40
2023-03-11T12:34:16.850Z,5.10
2023-03-11T12:35:16.838Z,5.30
2023-03-11T12:36:16.861Z,4.90
2023-03-11T12:37:16.829Z,3.90
2023-03-11T12:38:16.846Z,5.20
2023-03-11T12:39:16.796Z,5.40
2023-03-11T12:40:16.769Z,11.60
2023-03-11T12:41:16.787Z,6.20
2023-03-11T12:42:16.748Z,4.40
2023-03-11T12:43:16.774Z,9.50
2023-03-11T12:44:16.738Z,4.30
2023-03-11T12:45:16.712Z,3.70
2023-03-11T12:46:16.742Z,5.10
2023-03-11T12:47:16.710Z,7.00
2023-03-11T12:48:16.708Z,4.60
2023-03-11T12:49:16.687Z,4.60
2023-03-11T12:50:16.670Z,5.60
2023-03-11T12:51:16.658Z,6.80
2023-03-11T12:52:16.707Z,3.20
2023-03-11T12:53:16.651Z,7.90
2023-03-11T12:54:16.649Z,7.70
2023-03-11T12:55:16.602Z,5.40
2023-03-11T12:56:16.590Z,6.20
2023-03-11T12:57:16.583Z,5.70
2023-03-11T12:58:16.582Z,5.90
2023-03-11T12:59:16.576Z,6.70
2023-03-11T13:00:16.552Z,4.20
2023-03-11T13:01:16.535Z,7.10